usa flag      colorado flag

Language: 

TigerDenWX History Data from Weather Underground


TigerDenWX Weather Station Historical Data
 
Daily Summary for February 19, 2018 Units:  English    Metric   Both
« Previous Day
Next Day »
Daily Weekly Monthly Yearly Custom
  Current: High: Low: Average:
Temperature: 14.0 °F TemperatureF °F 13.1 °F 16.8 °F
Dew Point: 10.3 °F DewpointF °F 9.7 °F 13.8 °F
Humidity: 85 % Humidity % 85 % 87 %
Wind Speed: 1.0 mph WindSpeedMPH mph 0.0 mph 2.1 mph
Wind Gust: 4.0 mph WindSpeedGustMPH mph - -
Wind:ENE - - ENE
Pressure: 29.65 in PressureIn in 29.52 in -
Precipitation: 0.00 in      
Historical Graphs
 
 
Tabular Data for February 19, 2018
Time Temperature Dew Point Pressure Wind Wind Speed Wind Gust Humidity Rainfall Rate (Hourly) solar
TemperatureF °F DewpointF °F PressureIn in Calm     Humidity % HourlyPrecipIn in SolarRadiationWatts/m^2 W/m2
00:04 24.7 °F 21.9 °F 29.52 in ENE 4.0 mph 8.0 mph 89 % 0.00 in 0 W/m2
00:09 24.6 °F 21.8 °F 29.52 in ESE 3.0 mph 8.0 mph 89 % 0.00 in 0 W/m2
00:14 24.4 °F 21.6 °F 29.53 in ENE 5.0 mph 8.0 mph 89 % 0.00 in 0 W/m2
00:19 24.4 °F 21.6 °F 29.53 in NE 2.0 mph 7.0 mph 89 % 0.00 in 0 W/m2
00:24 24.3 °F 21.5 °F 29.53 in ENE 5.0 mph 7.0 mph 89 % 0.00 in 0 W/m2
00:29 24.3 °F 21.5 °F 29.53 in Calm   7.0 mph 89 % 0.00 in 0 W/m2
00:34 24.2 °F 21.4 °F 29.52 in NE 4.0 mph 9.0 mph 89 % 0.00 in 0 W/m2
00:39 23.9 °F 21.1 °F 29.53 in NE 2.0 mph 9.0 mph 89 % 0.00 in 0 W/m2
00:44 23.7 °F 20.9 °F 29.53 in NE 2.0 mph 9.0 mph 89 % 0.00 in 0 W/m2
00:50 23.5 °F 20.7 °F 29.53 in NNW 3.0 mph 10.0 mph 89 % 0.00 in 0 W/m2
00:55 23.2 °F 20.4 °F 29.53 in ENE 1.0 mph 10.0 mph 89 % 0.00 in 0 W/m2
01:00 23.2 °F 20.4 °F 29.54 in NNE 8.0 mph 8.0 mph 89 % 0.00 in 0 W/m2
01:05 22.9 °F 20.1 °F 29.53 in NNE 6.0 mph 11.0 mph 89 % 0.00 in 0 W/m2
01:10 22.7 °F 19.9 °F 29.54 in NE 6.0 mph 11.0 mph 89 % 0.00 in 0 W/m2
01:15 22.6 °F 19.8 °F 29.54 in NE 4.0 mph 8.0 mph 89 % 0.00 in 0 W/m2
01:20 22.5 °F 19.7 °F 29.54 in North 5.0 mph 8.0 mph 89 % 0.00 in 0 W/m2
01:25 22.2 °F 19.5 °F 29.55 in NE 2.0 mph 9.0 mph 89 % 0.00 in 0 W/m2
01:30 22.1 °F 19.4 °F 29.55 in NE 2.0 mph 9.0 mph 89 % 0.00 in 0 W/m2
01:35 22.0 °F 19.3 °F 29.55 in NNE 5.0 mph 8.0 mph 89 % 0.00 in 0 W/m2
01:40 21.8 °F 19.1 °F 29.55 in NNE 3.0 mph 8.0 mph 89 % 0.00 in 0 W/m2
01:45 21.5 °F 18.8 °F 29.55 in NNE 2.0 mph 12.0 mph 89 % 0.00 in 0 W/m2
01:50 21.1 °F 18.4 °F 29.55 in NE 3.0 mph 12.0 mph 89 % 0.00 in 0 W/m2
01:55 20.5 °F 17.5 °F 29.56 in Calm   12.0 mph 88 % 0.00 in 0 W/m2
02:00 20.2 °F 17.5 °F 29.56 in ENE 3.0 mph 11.0 mph 89 % 0.00 in 0 W/m2
02:05 20.1 °F 17.4 °F 29.56 in Calm   10.0 mph 89 % 0.00 in 0 W/m2
02:10 19.9 °F 17.2 °F 29.56 in NNE 4.0 mph 10.0 mph 89 % 0.00 in 0 W/m2
02:15 19.9 °F 17.2 °F 29.57 in NE 5.0 mph 7.0 mph 89 % 0.00 in 0 W/m2
02:20 19.8 °F 17.1 °F 29.57 in NE 3.0 mph 8.0 mph 89 % 0.00 in 0 W/m2
02:25 19.7 °F 17.0 °F 29.57 in NE 2.0 mph 10.0 mph 89 % 0.00 in 0 W/m2
02:30 19.7 °F 17.0 °F 29.56 in Calm   10.0 mph 89 % 0.00 in 0 W/m2
02:35 19.6 °F 16.9 °F 29.56 in NE 4.0 mph 8.0 mph 89 % 0.00 in 0 W/m2
02:40 19.5 °F 16.8 °F 29.55 in NE 7.0 mph 9.0 mph 89 % 0.00 in 0 W/m2
02:45 19.3 °F 16.6 °F 29.55 in Calm   9.0 mph 89 % 0.00 in 0 W/m2
02:50 19.2 °F 16.5 °F 29.55 in NE 2.0 mph 9.0 mph 89 % 0.00 in 0 W/m2
02:55 19.0 °F 16.3 °F 29.56 in North 1.0 mph 10.0 mph 89 % 0.00 in 0 W/m2
03:00 18.8 °F 16.1 °F 29.57 in Calm   10.0 mph 89 % 0.00 in 0 W/m2
03:05 18.4 °F 15.7 °F 29.57 in NE 7.0 mph 8.0 mph 89 % 0.00 in 0 W/m2
03:10 18.1 °F 15.1 °F 29.58 in NE 8.0 mph 10.0 mph 88 % 0.00 in 0 W/m2
03:15 17.7 °F 14.8 °F 29.58 in NE 1.0 mph 10.0 mph 88 % 0.00 in 0 W/m2
03:20 17.6 °F 14.7 °F 29.58 in Calm   8.0 mph 88 % 0.00 in 0 W/m2
03:25 17.5 °F 14.6 °F 29.59 in North 3.0 mph 5.0 mph 88 % 0.00 in 0 W/m2
03:31 17.4 °F 14.5 °F 29.58 in Calm   6.0 mph 88 % 0.00 in 0 W/m2
03:36 17.3 °F 14.6 °F 29.59 in NE 3.0 mph 7.0 mph 89 % 0.00 in 0 W/m2
03:41 17.2 °F 14.5 °F 29.59 in ENE 3.0 mph 7.0 mph 89 % 0.00 in 0 W/m2
03:46 17.1 °F 14.2 °F 29.60 in Calm   9.0 mph 88 % 0.00 in 0 W/m2
03:51 16.6 °F 13.7 °F 29.60 in NE 3.0 mph 9.0 mph 88 % 0.00 in 0 W/m2
03:56 16.4 °F 13.5 °F 29.59 in ENE 2.0 mph 9.0 mph 88 % 0.00 in 0 W/m2
04:01 16.3 °F 13.4 °F 29.59 in ENE 2.0 mph 9.0 mph 88 % 0.00 in 0 W/m2
04:06 16.1 °F 13.2 °F 29.59 in NNE 6.0 mph 9.0 mph 88 % 0.00 in 0 W/m2
04:11 16.0 °F 13.1 °F 29.60 in NE 4.0 mph 9.0 mph 88 % 0.00 in 0 W/m2
04:16 15.9 °F 13.0 °F 29.60 in Calm   6.0 mph 88 % 0.00 in 0 W/m2
04:21 15.9 °F 13.0 °F 29.60 in Calm   4.0 mph 88 % 0.00 in 0 W/m2
04:26 15.7 °F 12.8 °F 29.60 in Calm   4.0 mph 88 % 0.00 in 0 W/m2
04:31 15.4 °F 12.5 °F 29.59 in NE 2.0 mph 6.0 mph 88 % 0.00 in 0 W/m2
04:36 15.3 °F 12.4 °F 29.60 in NE 3.0 mph 6.0 mph 88 % 0.00 in 0 W/m2
04:41 15.2 °F 12.0 °F 29.60 in ENE 1.0 mph 7.0 mph 87 % 0.00 in 0 W/m2
04:46 15.1 °F 11.9 °F 29.60 in ESE 1.0 mph 7.0 mph 87 % 0.00 in 0 W/m2
04:51 15.0 °F 11.8 °F 29.60 in NNE 1.0 mph 4.0 mph 87 % 0.00 in 0 W/m2
04:56 14.9 °F 11.7 °F 29.60 in NNE 3.0 mph 5.0 mph 87 % 0.00 in 0 W/m2
05:01 14.8 °F 11.6 °F 29.61 in Calm   5.0 mph 87 % 0.00 in 0 W/m2
05:06 14.8 °F 11.6 °F 29.61 in Calm   7.0 mph 87 % 0.00 in 0 W/m2
05:11 14.8 °F 11.6 °F 29.61 in ENE 1.0 mph 7.0 mph 87 % 0.00 in 0 W/m2
05:16 14.8 °F 11.6 °F 29.62 in Calm   4.0 mph 87 % 0.00 in 0 W/m2
05:21 14.8 °F 11.6 °F 29.61 in NE 1.0 mph 8.0 mph 87 % 0.00 in 0 W/m2
05:26 14.6 °F 11.4 °F 29.62 in NE 1.0 mph 8.0 mph 87 % 0.00 in 0 W/m2
05:31 14.5 °F 11.3 °F 29.62 in Calm   2.0 mph 87 % 0.00 in 0 W/m2
05:36 14.3 °F 10.9 °F 29.62 in ENE 5.0 mph 9.0 mph 86 % 0.00 in 0 W/m2
05:41 14.1 °F 10.7 °F 29.62 in NE 2.0 mph 9.0 mph 86 % 0.00 in 0 W/m2
05:46 13.9 °F 10.5 °F 29.62 in NE 4.0 mph 8.0 mph 86 % 0.00 in 0 W/m2
05:51 13.8 °F 10.4 °F 29.62 in ENE 1.0 mph 8.0 mph 86 % 0.00 in 0 W/m2
05:56 13.7 °F 10.3 °F 29.63 in NNE 4.0 mph 7.0 mph 86 % 0.00 in 0 W/m2
06:01 13.6 °F 10.2 °F 29.62 in Calm   8.0 mph 86 % 0.00 in 0 W/m2
06:06 13.5 °F 10.1 °F 29.62 in NE 4.0 mph 8.0 mph 86 % 0.00 in 0 W/m2
06:11 13.4 °F 10.0 °F 29.63 in NE 8.0 mph 10.0 mph 86 % 0.00 in 0 W/m2
06:16 13.4 °F 10.0 °F 29.62 in NE 4.0 mph 10.0 mph 86 % 0.00 in 0 W/m2
06:21 13.4 °F 10.3 °F 29.63 in NNE 6.0 mph 8.0 mph 87 % 0.00 in 0 W/m2
06:26 13.4 °F 10.3 °F 29.62 in Calm   8.0 mph 87 % 0.00 in 0 W/m2
06:31 13.4 °F 10.3 °F 29.63 in Calm   8.0 mph 87 % 0.00 in 0 W/m2
06:36 13.4 °F 10.3 °F 29.63 in ENE 4.0 mph 8.0 mph 87 % 0.00 in 0 W/m2
06:41 13.3 °F 10.2 °F 29.63 in NNE 2.0 mph 7.0 mph 87 % 0.00 in 0 W/m2
06:46 13.3 °F 10.2 °F 29.63 in Calm   7.0 mph 87 % 0.00 in 0 W/m2
06:47 13.3 °F 10.2 °F 29.63 in ENE 1.0 mph 7.0 mph 87 % 0.00 in 0 W/m2
06:52 13.3 °F 10.2 °F 29.64 in NE 1.0 mph 7.0 mph 87 % 0.00 in 0 W/m2
06:57 13.2 °F 10.1 °F 29.64 in Calm   7.0 mph 87 % 0.00 in 0 W/m2
07:02 13.2 °F 10.1 °F 29.64 in ENE 1.0 mph 6.0 mph 87 % 0.00 in 5 W/m2
07:07 13.2 °F 10.1 °F 29.64 in NE 2.0 mph 5.0 mph 87 % 0.00 in 5 W/m2
07:12 13.1 °F 9.7 °F 29.65 in Calm   4.0 mph 86 % 0.00 in 7 W/m2
07:17 13.2 °F 9.8 °F 29.65 in Calm   4.0 mph 86 % 0.00 in 7 W/m2
07:22 13.2 °F 9.8 °F 29.65 in NNE 2.0 mph 4.0 mph 86 % 0.00 in 11 W/m2
07:27 13.2 °F 10.1 °F 29.65 in Calm   4.0 mph 87 % 0.00 in 14 W/m2
07:32 13.2 °F 10.1 °F 29.65 in NE 4.0 mph 4.0 mph 87 % 0.00 in 16 W/m2
07:37 13.1 °F 9.7 °F 29.65 in Calm   7.0 mph 86 % 0.00 in 18 W/m2
07:42 13.1 °F 9.7 °F 29.66 in NE 1.0 mph 7.0 mph 86 % 0.00 in 19 W/m2
07:47 13.1 °F 9.7 °F 29.65 in Calm   3.0 mph 86 % 0.00 in 19 W/m2
07:52 13.2 °F 9.8 °F 29.66 in Calm   3.0 mph 86 % 0.00 in 25 W/m2
07:57 13.3 °F 9.9 °F 29.65 in ESE 1.0 mph 3.0 mph 86 % 0.00 in 30 W/m2
08:02 13.4 °F 10.0 °F 29.66 in Calm   2.0 mph 86 % 0.00 in 32 W/m2
08:08 13.4 °F 10.0 °F 29.66 in ENE 1.0 mph 2.0 mph 86 % 0.00 in 33 W/m2
08:13 13.5 °F 10.1 °F 29.66 in Calm   3.0 mph 86 % 0.00 in 39 W/m2
08:18 13.5 °F 10.1 °F 29.66 in Calm   3.0 mph 86 % 0.00 in 40 W/m2
08:23 13.6 °F 10.2 °F 29.66 in Calm   2.0 mph 86 % 0.00 in 37 W/m2
08:28 13.7 °F 10.3 °F 29.66 in Calm   2.0 mph 86 % 0.00 in 44 W/m2
08:33 13.8 °F 10.1 °F 29.66 in Calm   3.0 mph 85 % 0.00 in 47 W/m2
08:38 13.8 °F 10.1 °F 29.65 in Calm   5.0 mph 85 % 0.00 in 49 W/m2
08:43 13.9 °F 10.2 °F 29.65 in East 2.0 mph 5.0 mph 85 % 0.00 in 49 W/m2
08:48 13.9 °F 10.2 °F 29.65 in ENE 1.0 mph 3.0 mph 85 % 0.00 in 58 W/m2
08:53 13.9 °F 10.2 °F 29.66 in ENE 2.0 mph 3.0 mph 85 % 0.00 in 54 W/m2
08:58 13.9 °F 10.2 °F 29.65 in Calm   3.0 mph 85 % 0.00 in 63 W/m2
09:03 14.0 °F 10.3 °F 29.65 in ENE 1.0 mph 4.0 mph 85 % 0.00 in 65 W/m2
SE Aurora, Colorado Weather
Compliments of Weather Underground - 2 mb
top